Time;durP1;ratioP1;P1;durP2;ratioP2;P2;SDS_P1;SDS_P2;PMS_P1;PMS_P2;Temp;Humidity;BMP_temperature;BMP_pressure;BME280_temperature;BME280_humidity;BME280_pressure;Samples;Min_cycle;Max_cycle;Signal;HPM_P1;HPM_P2
2022/09/03 00:00:27;;;;;;;;;11.50;7.50;;;29.64;101136.45;;;;117379;1190;25173;-62
2022/09/03 00:03:13;;;;;;;;;10.25;8.75;;;29.60;101137.96;;;;117347;1190;25197;-61
2022/09/03 00:06:16;;;;;;;;;7.25;7.00;;;29.56;101142.41;;;;117460;1190;25255;-61
2022/09/03 00:08:59;;;;;;;;;10.00;5.67;;;29.66;101142.94;;;;117445;1190;26124;-62
2022/09/03 00:11:47;;;;;;;;;10.25;10.00;;;29.66;101130.50;;;;117397;1189;25185;-62
2022/09/03 00:14:22;;;;;;;;;9.25;9.25;;;29.64;101118.66;;;;117455;1190;24982;-62
2022/09/03 00:17:02;;;;;;;;;10.25;8.50;;;29.58;101112.42;;;;117398;1190;24859;-61
2022/09/03 00:19:38;;;;;;;;;8.25;7.50;;;29.55;101114.75;;;;117424;1190;25195;-61
2022/09/03 00:22:17;;;;;;;;;7.75;6.50;;;29.53;101112.63;;;;117365;1190;25692;-61
2022/09/03 00:24:47;;;;;;;;;8.25;8.25;;;29.54;101108.70;;;;117431;1190;24871;-61
2022/09/03 00:27:23;;;;;;;;;12.00;9.00;;;29.52;101118.58;;;;117371;1190;24807;-61
2022/09/03 00:29:56;;;;;;;;;9.75;7.50;;;29.47;101127.16;;;;117410;1190;25569;-61
2022/09/03 00:32:33;;;;;;;;;10.75;9.25;;;29.48;101130.51;;;;117372;1191;25118;-61
2022/09/03 00:35:05;;;;;;;;;10.00;8.00;;;29.49;101136.13;;;;117427;1190;25439;-61
2022/09/03 00:37:34;;;;;;;;;8.25;7.00;;;29.48;101128.31;;;;117391;1190;25020;-61
2022/09/03 00:40:13;;;;;;;;;7.25;7.25;;;29.45;101130.98;;;;117360;1189;25189;-61
2022/09/03 00:42:51;;;;;;;;;9.00;9.00;;;29.46;101139.23;;;;117359;1189;24993;-61
2022/09/03 00:45:29;;;;;;;;;10.25;8.00;;;29.46;101142.63;;;;117409;1190;25722;-61
2022/09/03 00:48:15;;;;;;;;;7.67;7.00;;;29.43;101132.38;;;;117419;1190;25593;-61
2022/09/03 00:51:24;;;;;;;;;8.75;7.50;;;29.44;101119.06;;;;117405;1189;25322;-61
2022/09/03 00:54:09;;;;;;;;;10.75;8.75;;;29.48;101103.19;;;;117374;1189;24798;-61
2022/09/03 00:56:41;;;;;;;;;8.33;8.33;;;29.45;101098.56;;;;117351;1190;25585;-61
2022/09/03 00:59:19;;;;;;;;;7.50;7.00;;;29.42;101097.61;;;;117427;1190;25129;-61
2022/09/03 01:02:18;;;;;;;;;6.67;6.67;;;29.40;101097.92;;;;117407;1189;25035;-61
2022/09/03 01:05:10;;;;;;;;;10.75;9.00;;;29.45;101097.77;;;;117395;1189;25623;-61
2022/09/03 01:07:57;;;;;;;;;12.25;10.25;;;29.52;101097.82;;;;117433;1189;25680;-63
2022/09/03 01:10:43;;;;;;;;;9.75;9.75;;;29.50;101091.58;;;;117416;1188;24733;-61
2022/09/03 01:13:27;;;;;;;;;9.75;9.50;;;29.49;101091.32;;;;117347;1190;25010;-61
2022/09/03 01:16:10;;;;;;;;;10.50;9.25;;;29.44;101089.69;;;;117390;1190;24898;-61
2022/09/03 01:18:49;;;;;;;;;9.00;6.00;;;29.40;101093.31;;;;117404;1189;25475;-62
2022/09/03 01:21:35;;;;;;;;;9.75;7.25;;;29.38;101091.23;;;;117401;1188;25565;-61
2022/09/03 01:24:13;;;;;;;;;8.75;8.75;;;29.37;101086.05;;;;117382;1189;24887;-61
2022/09/03 01:26:47;;;;;;;;;9.50;8.00;;;29.36;101078.41;;;;117410;1190;25590;-61
2022/09/03 01:29:25;;;;;;;;;8.00;7.50;;;29.33;101079.05;;;;117394;1190;25092;-61
2022/09/03 01:32:08;;;;;;;;;11.00;9.50;;;29.33;101076.98;;;;117371;1189;25405;-62
2022/09/03 01:34:58;;;;;;;;;10.50;8.25;;;29.37;101082.98;;;;117387;1190;24908;-61
2022/09/03 01:37:33;;;;;;;;;10.50;8.00;;;29.37;101080.13;;;;117384;1190;25465;-61
2022/09/03 01:40:30;;;;;;;;;8.50;8.50;;;29.33;101081.01;;;;117370;1191;25660;-61
2022/09/03 01:42:59;;;;;;;;;9.00;9.00;;;29.37;101082.05;;;;117401;1190;25627;-62
2022/09/03 01:45:50;;;;;;;;;11.67;9.00;;;29.38;101079.34;;;;117513;1189;25066;-62
2022/09/03 01:48:41;;;;;;;;;11.00;8.75;;;29.36;101074.69;;;;117411;1189;25098;-64
2022/09/03 01:51:21;;;;;;;;;12.00;10.50;;;29.38;101079.20;;;;117417;1190;25355;-62
2022/09/03 01:54:27;;;;;;;;;10.00;7.75;;;29.33;101079.90;;;;117386;1190;26311;-62
2022/09/03 01:57:19;;;;;;;;;8.00;8.00;;;29.38;101078.44;;;;117389;1190;25266;-61
2022/09/03 02:00:09;;;;;;;;;12.00;10.75;;;29.39;101075.98;;;;117377;1190;25440;-61
2022/09/03 02:02:42;;;;;;;;;8.25;8.25;;;29.39;101076.44;;;;117462;1189;25027;-61
2022/09/03 02:05:15;;;;;;;;;9.33;8.00;;;29.37;101073.78;;;;117348;1190;24760;-62
2022/09/03 02:07:45;;;;;;;;;11.00;7.00;;;29.37;101069.44;;;;117405;1190;26568;-61
2022/09/03 02:10:21;;;;;;;;;6.50;6.50;;;29.35;101067.71;;;;117383;1190;25115;-61
2022/09/03 02:12:56;;;;;;;;;8.33;8.33;;;29.33;101075.20;;;;117391;1190;25231;-62
2022/09/03 02:15:25;;;;;;;;;10.67;9.33;;;29.32;101079.04;;;;117383;1190;24803;-62
2022/09/03 02:17:56;;;;;;;;;6.50;6.50;;;29.30;101090.23;;;;117414;1190;24685;-61
2022/09/03 02:20:27;;;;;;;;;6.75;4.50;;;29.29;101093.63;;;;117373;1190;25226;-61
2022/09/03 02:22:57;;;;;;;;;9.00;7.75;;;29.29;101093.35;;;;117394;1190;25541;-61
2022/09/03 02:25:33;;;;;;;;;15.25;10.25;;;29.29;101093.86;;;;117432;1190;25211;-62
2022/09/03 02:28:04;;;;;;;;;9.75;5.50;;;29.29;101097.79;;;;117384;1191;25776;-60
2022/09/03 02:30:43;;;;;;;;;8.75;8.75;;;29.31;101101.55;;;;117398;1190;25416;-62
2022/09/03 02:33:12;;;;;;;;;8.75;8.00;;;29.31;101102.52;;;;117387;1189;25498;-61
2022/09/03 02:35:42;;;;;;;;;13.25;10.00;;;29.29;101108.94;;;;117385;1190;25694;-60
2022/09/03 02:38:11;;;;;;;;;9.50;8.25;;;29.29;101120.39;;;;117399;1190;24971;-61
2022/09/03 02:40:39;;;;;;;;;4.00;4.00;;;29.28;101124.96;;;;117410;1190;25713;-61
2022/09/03 02:43:12;;;;;;;;;11.25;9.25;;;29.26;101124.46;;;;117391;1190;25057;-61
2022/09/03 02:45:46;;;;;;;;;11.50;9.00;;;29.24;101121.98;;;;117369;1190;24737;-61
2022/09/03 02:48:20;;;;;;;;;7.75;7.00;;;29.24;101114.34;;;;117399;1190;24964;-62
2022/09/03 02:50:49;;;;;;;;;10.50;9.25;;;29.26;101099.67;;;;117429;1190;25537;-62
2022/09/03 02:53:17;;;;;;;;;11.00;9.75;;;29.24;101097.35;;;;117396;1190;25201;-61
2022/09/03 02:55:46;;;;;;;;;13.00;8.67;;;29.22;101096.20;;;;117374;1190;25179;-61
2022/09/03 02:58:14;;;;;;;;;9.75;8.50;;;29.20;101084.83;;;;117423;1190;24839;-60
2022/09/03 03:00:43;;;;;;;;;7.75;7.75;;;29.19;101073.67;;;;117376;1190;25334;-61
2022/09/03 03:03:12;;;;;;;;;7.75;7.75;;;29.18;101079.29;;;;117387;1189;24850;-61
2022/09/03 03:05:54;;;;;;;;;9.67;9.67;;;29.18;101076.27;;;;117407;1190;25280;-61
2022/09/03 03:08:26;;;;;;;;;8.50;7.50;;;29.20;101064.15;;;;117394;1190;25123;-61
2022/09/03 03:10:57;;;;;;;;;10.25;7.25;;;29.21;101054.13;;;;117386;1190;25738;-62
2022/09/03 03:13:27;;;;;;;;;10.25;10.25;;;29.21;101047.17;;;;117356;1188;25488;-61
2022/09/03 03:16:00;;;;;;;;;9.00;8.50;;;29.19;101041.42;;;;117403;1189;25218;-60
2022/09/03 03:18:29;;;;;;;;;8.75;8.75;;;29.16;101043.64;;;;117421;1189;24765;-61
2022/09/03 03:21:06;;;;;;;;;9.00;9.00;;;29.18;101049.08;;;;117402;1190;25460;-61
2022/09/03 03:23:35;;;;;;;;;8.75;6.00;;;29.20;101048.75;;;;117375;1190;25607;-62
2022/09/03 03:26:07;;;;;;;;;10.00;8.25;;;29.19;101042.10;;;;117392;1189;25152;-61
2022/09/03 03:28:35;;;;;;;;;9.50;9.50;;;29.17;101046.69;;;;117396;1190;25075;-62
2022/09/03 03:31:12;;;;;;;;;9.50;7.25;;;29.17;101052.45;;;;117388;1189;25030;-61
2022/09/03 03:33:41;;;;;;;;;8.50;7.00;;;29.17;101057.52;;;;117413;1190;25355;-62
2022/09/03 03:36:13;;;;;;;;;9.00;7.00;;;29.17;101069.04;;;;117473;1190;25642;-62
2022/09/03 03:38:42;;;;;;;;;8.25;6.25;;;29.17;101083.08;;;;117424;1190;25609;-63
2022/09/03 03:41:17;;;;;;;;;10.25;9.00;;;29.18;101085.14;;;;117436;1189;25312;-63
2022/09/03 03:43:46;;;;;;;;;9.75;8.00;;;29.17;101084.40;;;;117461;1190;25048;-62
2022/09/03 03:46:14;;;;;;;;;9.50;7.50;;;29.16;101084.52;;;;117344;1190;25125;-62
2022/09/03 03:48:43;;;;;;;;;7.25;7.25;;;29.14;101087.67;;;;117398;1190;25579;-61
2022/09/03 03:51:12;;;;;;;;;11.75;9.00;;;29.15;101084.22;;;;117378;1190;25066;-61
2022/09/03 03:53:40;;;;;;;;;10.33;9.00;;;29.13;101078.33;;;;117266;1190;25090;-61
2022/09/03 03:56:12;;;;;;;;;9.75;9.75;;;29.14;101079.35;;;;117413;1189;25700;-62
2022/09/03 03:58:42;;;;;;;;;10.75;7.75;;;29.14;101076.39;;;;117426;1189;24825;-61
2022/09/03 04:01:16;;;;;;;;;9.00;9.00;;;29.13;101073.19;;;;117434;1190;25369;-61
2022/09/03 04:03:45;;;;;;;;;9.67;7.33;;;29.14;101079.01;;;;117401;1189;25121;-61
2022/09/03 04:06:16;;;;;;;;;4.50;4.50;;;29.12;101074.51;;;;117417;1190;25494;-61
2022/09/03 04:08:46;;;;;;;;;8.33;8.33;;;29.14;101077.90;;;;117356;1190;25398;-61
2022/09/03 04:11:19;;;;;;;;;12.50;9.00;;;29.17;101075.38;;;;117386;1189;25027;-60
2022/09/03 04:13:48;;;;;;;;;12.25;8.25;;;29.16;101073.70;;;;117403;1188;24805;-60
2022/09/03 04:16:25;;;;;;;;;12.25;10.75;;;29.10;101078.45;;;;117415;1190;25475;-61
2022/09/03 04:18:55;;;;;;;;;7.75;7.75;;;29.12;101080.47;;;;117365;1189;24948;-61
2022/09/03 04:21:29;;;;;;;;;4.67;3.33;;;29.13;101075.33;;;;117382;1190;24964;-60
2022/09/03 04:23:58;;;;;;;;;9.00;9.00;;;29.14;101071.55;;;;117423;1189;25393;-61
2022/09/03 04:26:31;;;;;;;;;15.33;10.00;;;29.13;101073.11;;;;117398;1190;25555;-60
2022/09/03 04:29:05;;;;;;;;;9.75;7.75;;;29.10;101076.24;;;;117451;1190;24693;-61
2022/09/03 04:31:35;;;;;;;;;8.50;7.50;;;29.11;101079.17;;;;117387;1191;25546;-61
2022/09/03 04:34:05;;;;;;;;;3.33;3.33;;;29.10;101081.95;;;;117376;1190;25390;-61
2022/09/03 04:36:33;;;;;;;;;8.25;6.25;;;29.09;101091.98;;;;117397;1190;25022;-61
2022/09/03 04:39:02;;;;;;;;;9.50;9.00;;;29.07;101100.68;;;;117430;1190;25410;-63
2022/09/03 04:41:31;;;;;;;;;11.00;9.33;;;29.07;101102.27;;;;117323;1190;25064;-62
2022/09/03 04:43:59;;;;;;;;;7.50;7.50;;;29.11;101106.94;;;;117390;1190;24749;-64
2022/09/03 04:46:31;;;;;;;;;6.50;5.75;;;29.00;101111.06;;;;117409;1190;24941;-60
2022/09/03 04:49:01;;;;;;;;;8.50;8.50;;;28.94;101116.20;;;;117402;1190;25293;-60
2022/09/03 04:51:31;;;;;;;;;9.50;9.00;;;29.11;101120.71;;;;117388;1188;25306;-60
2022/09/03 04:54:01;;;;;;;;;25.25;23.50;;;28.91;101116.39;;;;117387;1190;24893;-60
2022/09/03 04:56:32;;;;;;;;;21.50;17.00;;;28.68;101122.04;;;;117403;1190;25240;-61
2022/09/03 04:59:08;;;;;;;;;20.33;17.67;;;28.29;101121.42;;;;117414;1190;24766;-61
2022/09/03 05:01:38;;;;;;;;;16.50;14.25;;;28.09;101123.47;;;;117386;1190;25034;-61
2022/09/03 05:04:07;;;;;;;;;5.50;5.50;;;27.91;101125.27;;;;117368;1190;24923;-61
2022/09/03 05:06:36;;;;;;;;;11.33;9.33;;;27.79;101124.05;;;;117476;1190;25267;-61
2022/09/03 05:09:05;;;;;;;;;10.50;10.25;;;27.70;101125.69;;;;117406;1190;24907;-63
2022/09/03 05:11:34;;;;;;;;;13.33;10.67;;;27.51;101134.03;;;;117416;1189;25299;-63
2022/09/03 05:14:04;;;;;;;;;12.33;9.33;;;27.41;101135.02;;;;117473;1190;25733;-62
2022/09/03 05:16:33;;;;;;;;;17.75;13.25;;;27.35;101127.75;;;;117413;1190;24858;-59
2022/09/03 05:19:02;;;;;;;;;9.67;6.33;;;27.09;101127.39;;;;117381;1190;24869;-58
2022/09/03 05:21:31;;;;;;;;;13.75;7.50;;;27.20;101128.75;;;;117333;1190;24978;-58
2022/09/03 05:24:00;;;;;;;;;11.50;9.25;;;27.33;101129.79;;;;117408;1190;24840;-57
2022/09/03 05:26:31;;;;;;;;;11.50;9.50;;;27.44;101126.24;;;;117374;1190;24876;-57
2022/09/03 05:29:01;;;;;;;;;9.67;9.33;;;27.58;101129.32;;;;117393;1190;25609;-58
2022/09/03 05:31:30;;;;;;;;;14.00;8.75;;;27.67;101127.48;;;;117363;1187;24990;-61
2022/09/03 05:34:02;;;;;;;;;16.50;10.50;;;27.79;101124.23;;;;117456;1190;25431;-62
2022/09/03 05:36:35;;;;;;;;;14.00;9.25;;;27.88;101118.48;;;;117439;1189;25052;-64
2022/09/03 05:39:04;;;;;;;;;15.00;9.25;;;27.87;101116.35;;;;117427;1190;25202;-62
2022/09/03 05:41:33;;;;;;;;;9.00;9.00;;;27.95;101114.36;;;;117397;1190;24949;-59
2022/09/03 05:44:03;;;;;;;;;11.33;8.33;;;27.97;101110.73;;;;117380;1190;25245;-58
2022/09/03 05:46:32;;;;;;;;;13.00;7.75;;;28.03;101116.50;;;;117389;1190;24767;-57
2022/09/03 05:49:03;;;;;;;;;13.00;10.25;;;28.03;101133.40;;;;117423;1190;25363;-57
2022/09/03 05:51:33;;;;;;;;;9.75;8.00;;;28.01;101141.05;;;;117416;1190;25456;-56
2022/09/03 05:54:02;;;;;;;;;14.00;9.25;;;28.10;101142.19;;;;117405;1190;24894;-57
2022/09/03 05:56:32;;;;;;;;;13.00;8.25;;;28.13;101147.38;;;;117375;1190;25426;-58
2022/09/03 05:59:05;;;;;;;;;7.67;7.67;;;28.21;101159.29;;;;117397;1190;24708;-57
2022/09/03 06:01:39;;;;;;;;;9.00;8.25;;;28.26;101164.28;;;;117421;1190;24762;-59
2022/09/03 06:04:13;;;;;;;;;20.00;10.33;;;28.32;101170.33;;;;117527;1189;25280;-59
2022/09/03 06:06:43;;;;;;;;;11.75;8.75;;;28.39;101178.61;;;;117402;1190;25115;-58
2022/09/03 06:09:14;;;;;;;;;12.75;9.25;;;28.42;101184.29;;;;117410;1189;25312;-58
2022/09/03 06:11:44;;;;;;;;;25.25;21.50;;;28.44;101186.97;;;;117390;1190;25502;-59
2022/09/03 06:14:13;;;;;;;;;14.00;11.00;;;28.51;101186.91;;;;117325;1189;24957;-58
2022/09/03 06:16:43;;;;;;;;;11.00;8.00;;;28.51;101193.96;;;;117395;1190;24788;-58
2022/09/03 06:19:13;;;;;;;;;8.50;6.50;;;28.53;101195.84;;;;117401;1190;25210;-58
2022/09/03 06:21:43;;;;;;;;;11.50;9.75;;;28.55;101199.63;;;;117436;1189;25251;-59
2022/09/03 06:24:17;;;;;;;;;10.33;9.33;;;28.56;101204.90;;;;117397;1190;24960;-59
2022/09/03 06:26:47;;;;;;;;;8.50;8.25;;;28.62;101208.93;;;;117388;1190;25565;-59
2022/09/03 06:29:17;;;;;;;;;13.25;8.50;;;28.63;101211.98;;;;117369;1189;25283;-59
2022/09/03 06:31:47;;;;;;;;;10.50;7.25;;;28.63;101212.51;;;;117389;1190;24810;-59
2022/09/03 06:34:21;;;;;;;;;9.00;6.67;;;28.63;101213.46;;;;117391;1189;24847;-59
2022/09/03 06:36:50;;;;;;;;;9.67;8.67;;;28.66;101212.43;;;;117359;1189;25247;-58
2022/09/03 06:39:21;;;;;;;;;10.75;8.25;;;28.68;101210.77;;;;117381;1189;25782;-59
2022/09/03 06:41:50;;;;;;;;;9.25;7.75;;;28.74;101216.34;;;;117404;1190;25724;-58
2022/09/03 06:44:19;;;;;;;;;9.25;8.00;;;28.78;101224.73;;;;117379;1190;24831;-58
2022/09/03 06:46:47;;;;;;;;;9.00;8.00;;;28.81;101232.04;;;;117302;1190;25402;-58
2022/09/03 06:49:16;;;;;;;;;13.25;8.00;;;28.81;101235.41;;;;117430;1190;25043;-59
2022/09/03 06:51:44;;;;;;;;;9.50;8.25;;;28.82;101232.13;;;;117401;1190;25524;-59
2022/09/03 06:54:14;;;;;;;;;12.75;7.25;;;28.82;101231.66;;;;117332;1189;24726;-58
2022/09/03 06:56:43;;;;;;;;;11.25;9.00;;;28.87;101229.17;;;;117420;1190;24847;-59
2022/09/03 06:59:13;;;;;;;;;8.33;8.00;;;28.83;101229.14;;;;117347;1190;25369;-59
2022/09/03 07:01:43;;;;;;;;;9.75;9.75;;;28.85;101232.02;;;;117440;1189;25247;-58
2022/09/03 07:04:15;;;;;;;;;8.25;6.00;;;28.89;101236.20;;;;117384;1190;25627;-59
2022/09/03 07:06:47;;;;;;;;;11.00;7.67;;;28.94;101231.69;;;;117326;1189;25586;-58
2022/09/03 07:09:17;;;;;;;;;11.50;10.00;;;28.95;101229.25;;;;117385;1190;24808;-58
2022/09/03 07:11:46;;;;;;;;;5.00;5.00;;;28.93;101226.95;;;;117449;1190;25416;-57
2022/09/03 07:14:17;;;;;;;;;16.25;9.25;;;28.96;101224.80;;;;117408;1191;24762;-58
2022/09/03 07:16:48;;;;;;;;;10.00;9.00;;;28.96;101227.21;;;;117382;1189;24784;-58
2022/09/03 07:19:16;;;;;;;;;11.00;7.00;;;28.96;101227.64;;;;117386;1191;24882;-58
2022/09/03 07:21:45;;;;;;;;;13.00;9.67;;;28.98;101228.45;;;;117450;1190;25138;-58
2022/09/03 07:24:20;;;;;;;;;11.00;6.67;;;29.02;101225.95;;;;117410;1190;25405;-58
2022/09/03 07:26:49;;;;;;;;;7.50;5.00;;;29.00;101221.63;;;;117430;1189;25131;-59
2022/09/03 07:29:18;;;;;;;;;14.67;9.00;;;29.00;101220.08;;;;117332;1190;25541;-60
2022/09/03 07:31:50;;;;;;;;;16.75;9.25;;;29.00;101216.86;;;;117414;1188;24765;-58
2022/09/03 07:34:23;;;;;;;;;15.50;8.50;;;29.02;101217.69;;;;117413;1190;25276;-59
2022/09/03 07:36:54;;;;;;;;;20.75;16.75;;;29.02;101216.73;;;;117423;1190;25423;-58
2022/09/03 07:39:22;;;;;;;;;13.25;11.00;;;29.01;101218.91;;;;117435;1189;25071;-59
2022/09/03 07:41:51;;;;;;;;;11.00;6.75;;;29.02;101221.02;;;;117313;1191;25163;-60
2022/09/03 07:44:21;;;;;;;;;18.25;13.00;;;29.04;101213.64;;;;117400;1190;25328;-60
2022/09/03 07:46:50;;;;;;;;;18.75;13.75;;;29.07;101219.86;;;;117348;1189;24830;-59
2022/09/03 07:49:20;;;;;;;;;21.25;15.00;;;29.10;101220.17;;;;117392;1190;24839;-59
2022/09/03 07:51:52;;;;;;;;;20.00;10.33;;;29.08;101219.85;;;;117395;1190;25367;-59
2022/09/03 07:54:22;;;;;;;;;14.00;8.50;;;29.10;101217.11;;;;117366;1189;25530;-57
2022/09/03 07:56:51;;;;;;;;;16.25;12.25;;;29.10;101218.05;;;;117395;1189;24917;-59
2022/09/03 07:59:21;;;;;;;;;16.75;11.00;;;29.11;101214.89;;;;117426;1190;25244;-60
2022/09/03 08:01:50;;;;;;;;;12.67;9.00;;;29.13;101216.73;;;;117497;1189;25444;-59
2022/09/03 08:04:19;;;;;;;;;14.00;8.75;;;29.15;101215.95;;;;117346;1190;25383;-59
2022/09/03 08:06:48;;;;;;;;;18.00;13.50;;;29.15;101214.73;;;;117328;1190;25184;-60
2022/09/03 08:09:16;;;;;;;;;14.67;10.67;;;29.15;101215.71;;;;117375;1190;25240;-57
2022/09/03 08:11:45;;;;;;;;;15.50;12.00;;;29.15;101216.50;;;;117250;1190;25639;-59
2022/09/03 08:14:13;;;;;;;;;17.50;12.25;;;29.15;101214.27;;;;117297;1190;24711;-59
2022/09/03 08:16:46;;;;;;;;;16.25;12.75;;;29.15;101215.61;;;;117405;1190;25158;-59
2022/09/03 08:19:17;;;;;;;;;20.25;11.50;;;29.15;101214.48;;;;117435;1190;25289;-59
2022/09/03 08:21:46;;;;;;;;;11.50;8.75;;;29.17;101218.57;;;;117351;1190;25400;-58
2022/09/03 08:24:16;;;;;;;;;13.50;9.25;;;29.17;101220.16;;;;117426;1190;24778;-58
2022/09/03 08:26:45;;;;;;;;;12.25;9.75;;;29.13;101216.81;;;;117424;1190;25566;-60
2022/09/03 08:29:21;;;;;;;;;16.25;9.75;;;29.20;101213.54;;;;117296;1190;24793;-59
2022/09/03 08:31:49;;;;;;;;;10.75;8.75;;;29.18;101215.93;;;;117337;1190;24864;-58
2022/09/03 08:34:19;;;;;;;;;11.50;9.75;;;29.17;101216.33;;;;117361;1190;26310;-59
2022/09/03 08:36:49;;;;;;;;;14.50;8.50;;;29.16;101216.61;;;;117376;1190;25147;-58
2022/09/03 08:39:17;;;;;;;;;19.75;9.00;;;29.18;101217.27;;;;117400;1190;25378;-57
2022/09/03 08:41:50;;;;;;;;;14.33;9.33;;;29.16;101218.34;;;;117362;1190;24917;-58
2022/09/03 08:44:29;;;;;;;;;10.00;9.00;;;29.16;101217.56;;;;117410;1189;25594;-57
2022/09/03 08:47:28;;;;;;;;;17.33;10.00;;;29.20;101217.00;;;;117407;1189;24989;-57
2022/09/03 08:50:07;;;;;;;;;11.67;8.00;;;29.17;101217.48;;;;117386;1190;25070;-59
2022/09/03 08:52:38;;;;;;;;;11.00;9.50;;;29.17;101216.41;;;;117438;1190;25332;-58
2022/09/03 08:55:30;;;;;;;;;8.67;8.00;;;29.16;101220.73;;;;117393;1190;24840;-58
2022/09/03 08:58:13;;;;;;;;;14.50;8.00;;;29.19;101219.34;;;;117417;1190;25075;-58
2022/09/03 09:01:23;;;;;;;;;13.25;12.00;;;29.19;101213.58;;;;117423;1190;25810;-57
2022/09/03 09:04:13;;;;;;;;;18.00;10.00;;;29.24;101210.70;;;;117196;1190;24918;-58
2022/09/03 09:06:42;;;;;;;;;10.00;10.00;;;29.33;101209.59;;;;117421;1188;25649;-57
2022/09/03 09:09:36;;;;;;;;;17.00;7.50;;;29.25;101175.59;;;;117416;1190;25539;-58
2022/09/03 09:12:08;;;;;;;;;14.25;8.75;;;29.23;101180.44;;;;117399;1190;25608;-58
2022/09/03 09:14:48;;;;;;;;;11.67;10.33;;;29.21;101184.77;;;;117378;1190;25087;-59
2022/09/03 09:17:30;;;;;;;;;19.25;15.25;;;29.19;101188.62;;;;117381;1189;25063;-59
2022/09/03 09:20:18;;;;;;;;;30.25;23.25;;;29.13;101220.65;;;;117375;1190;25610;-58
2022/09/03 09:22:51;;;;;;;;;20.75;12.50;;;28.99;101223.64;;;;117369;1190;24984;-62
2022/09/03 09:25:21;;;;;;;;;7.67;6.67;;;28.90;101222.06;;;;117450;1190;25310;-59
2022/09/03 09:28:01;;;;;;;;;14.00;10.00;;;28.86;101218.74;;;;117414;1190;25574;-58
2022/09/03 09:30:31;;;;;;;;;12.33;9.33;;;28.74;101215.23;;;;117388;1189;25311;-61
2022/09/03 09:32:59;;;;;;;;;15.00;9.33;;;28.40;101214.45;;;;114949;1189;3010907;-61
2022/09/03 09:35:27;;;;;;;;;16.50;11.50;;;28.24;101213.95;;;;117354;1190;25254;-60
2022/09/03 09:37:59;;;;;;;;;13.00;10.33;;;28.40;101219.15;;;;117352;1190;25517;-60
2022/09/03 09:40:29;;;;;;;;;18.50;10.00;;;28.22;101221.88;;;;117333;1189;25589;-62
2022/09/03 09:43:14;;;;;;;;;23.33;11.00;;;28.24;101224.20;;;;117430;1190;25169;-62
2022/09/03 09:45:47;;;;;;;;;16.00;11.25;;;28.37;101226.17;;;;117359;1190;25067;-62
2022/09/03 09:48:30;;;;;;;;;15.33;10.00;;;28.35;101225.92;;;;117396;1190;24992;-61
2022/09/03 09:51:16;;;;;;;;;23.00;9.67;;;28.38;101222.55;;;;117368;1190;25568;-60
2022/09/03 09:53:45;;;;;;;;;16.75;11.00;;;28.43;101223.02;;;;117428;1190;24753;-61
2022/09/03 09:56:22;;;;;;;;;15.50;9.50;;;28.45;101224.52;;;;117417;1190;24967;-61
2022/09/03 09:59:08;;;;;;;;;17.33;11.33;;;28.48;101226.58;;;;117421;1190;25262;-63
2022/09/03 10:01:39;;;;;;;;;19.75;9.00;;;28.51;101227.92;;;;117370;1190;25373;-63
2022/09/03 10:04:14;;;;;;;;;18.33;8.00;;;28.56;101232.39;;;;117387;1190;25562;-60
2022/09/03 10:06:58;;;;;;;;;16.00;9.67;;;28.68;101239.89;;;;117355;1190;24798;-65
2022/09/03 10:09:28;;;;;;;;;16.00;9.67;;;28.67;101245.87;;;;117385;1189;25330;-63
2022/09/03 10:12:18;;;;;;;;;13.50;9.75;;;28.68;101247.61;;;;117420;1190;25726;-64
2022/09/03 10:14:58;;;;;;;;;20.00;10.00;;;28.66;101249.36;;;;117321;1191;24803;-64
2022/09/03 10:17:39;;;;;;;;;13.75;9.25;;;28.66;101243.02;;;;117336;1189;25506;-63
2022/09/03 10:20:29;;;;;;;;;12.00;7.33;;;28.62;101245.89;;;;117360;1190;24805;-63
2022/09/03 10:23:03;;;;;;;;;16.25;7.25;;;28.58;101254.60;;;;117369;1190;25160;-66
2022/09/03 10:25:59;;;;;;;;;8.50;7.25;;;28.58;101256.25;;;;117355;1189;24969;-65
2022/09/03 10:28:29;;;;;;;;;12.75;8.25;;;28.62;101258.48;;;;117392;1189;25306;-64
2022/09/03 10:31:16;;;;;;;;;8.00;7.00;;;28.63;101254.65;;;;117422;1190;25198;-63
2022/09/03 10:34:17;;;;;;;;;15.25;8.75;;;28.62;101259.95;;;;117425;1189;25487;-65
2022/09/03 10:37:11;;;;;;;;;11.67;9.00;;;28.62;101263.44;;;;117397;1190;25130;-63
2022/09/03 10:39:59;;;;;;;;;11.75;8.75;;;28.66;101268.64;;;;117351;1190;25117;-63
2022/09/03 10:42:45;;;;;;;;;9.25;6.50;;;28.66;101280.58;;;;117447;1189;25139;-65
2022/09/03 10:45:44;;;;;;;;;12.33;10.00;;;28.67;101290.86;;;;117385;1189;26299;-64
2022/09/03 10:48:32;;;;;;;;;9.75;8.25;;;28.67;101292.08;;;;117335;1189;25275;-64
2022/09/03 10:51:06;;;;;;;;;8.00;6.50;;;28.65;101289.16;;;;117356;1191;25448;-62
2022/09/03 10:54:12;;;;;;;;;6.00;5.50;;;28.68;101285.79;;;;117385;1190;25360;-62
2022/09/03 10:57:00;;;;;;;;;9.67;8.00;;;28.66;101284.98;;;;117479;1187;25707;-61
2022/09/03 10:59:37;;;;;;;;;8.00;6.00;;;28.62;101283.65;;;;117408;1190;26516;-61
2022/09/03 11:02:25;;;;;;;;;4.75;4.75;;;28.62;101285.14;;;;117411;1190;24995;-60
2022/09/03 11:05:15;;;;;;;;;10.25;5.75;;;28.62;101290.31;;;;117442;1189;25147;-60
2022/09/03 11:07:47;;;;;;;;;6.33;5.00;;;28.64;101292.39;;;;117387;1190;24988;-60
2022/09/03 11:10:25;;;;;;;;;8.00;7.25;;;28.67;101289.76;;;;117376;1191;25185;-61
2022/09/03 11:13:12;;;;;;;;;11.00;7.50;;;28.71;101292.96;;;;117376;1190;24830;-61
2022/09/03 11:16:18;;;;;;;;;9.00;5.33;;;28.74;101295.18;;;;117431;1189;25226;-60
2022/09/03 11:19:16;;;;;;;;;10.00;7.50;;;28.83;101289.94;;;;117188;1190;25392;-62
2022/09/03 11:21:47;;;;;;;;;8.50;6.00;;;28.90;101284.02;;;;117387;1191;24788;-60
2022/09/03 11:24:25;;;;;;;;;8.00;7.00;;;28.90;101282.58;;;;117441;1190;24899;-60
2022/09/03 11:27:05;;;;;;;;;8.50;6.25;;;28.89;101280.88;;;;117433;1191;24798;-60
2022/09/03 11:29:47;;;;;;;;;7.50;6.50;;;28.89;101278.05;;;;117407;1189;25467;-61
2022/09/03 11:32:45;;;;;;;;;7.75;6.50;;;28.93;101275.02;;;;117439;1189;25583;-60
2022/09/03 11:35:41;;;;;;;;;11.00;7.00;;;28.94;101275.04;;;;117413;1190;24768;-62
2022/09/03 11:38:23;;;;;;;;;8.00;6.00;;;28.96;101275.16;;;;117362;1190;26128;-60
2022/09/03 11:41:01;;;;;;;;;8.67;8.00;;;29.01;101275.13;;;;117385;1190;25072;-60
2022/09/03 11:43:31;;;;;;;;;10.75;8.00;;;28.98;101276.54;;;;117416;1190;25114;-61
2022/09/03 11:46:04;;;;;;;;;12.25;6.00;;;28.95;101281.83;;;;117377;1189;25450;-60
2022/09/03 11:48:42;;;;;;;;;4.00;4.00;;;28.92;101283.80;;;;117411;1190;24896;-60
2022/09/03 11:51:32;;;;;;;;;7.00;6.00;;;28.93;101280.39;;;;117359;1190;25702;-61
2022/09/03 11:54:12;;;;;;;;;3.50;1.25;;;28.97;101282.70;;;;117444;1190;24817;-62
2022/09/03 11:56:41;;;;;;;;;7.33;7.00;;;28.97;101291.08;;;;117411;1190;24794;-60
2022/09/03 11:59:13;;;;;;;;;8.25;6.25;;;28.96;101296.23;;;;117442;1190;25458;-61
2022/09/03 12:02:12;;;;;;;;;7.00;6.00;;;28.94;101298.57;;;;117407;1190;25654;-61
2022/09/03 12:04:49;;;;;;;;;10.33;8.67;;;29.03;101299.79;;;;117414;1190;25260;-61
2022/09/03 12:07:34;;;;;;;;;8.33;7.33;;;29.06;101298.08;;;;117393;1190;24683;-61
2022/09/03 12:10:27;;;;;;;;;5.75;5.75;;;29.07;101296.77;;;;117423;1189;25014;-60
2022/09/03 12:13:02;;;;;;;;;8.00;5.50;;;29.06;101288.08;;;;117372;1190;25740;-61
2022/09/03 12:16:03;;;;;;;;;11.50;7.25;;;28.99;101288.46;;;;117389;1189;25144;-61
2022/09/03 12:18:33;;;;;;;;;8.00;6.33;;;28.99;101296.67;;;;117331;1190;25288;-60
2022/09/03 12:21:04;;;;;;;;;10.25;5.50;;;29.01;101296.52;;;;117390;1190;25235;-60
2022/09/03 12:23:43;;;;;;;;;10.25;7.75;;;28.99;101296.86;;;;117421;1190;24876;-61
2022/09/03 12:26:15;;;;;;;;;8.67;7.33;;;28.98;101293.39;;;;117438;1190;25839;-63
2022/09/03 12:28:48;;;;;;;;;12.00;7.00;;;28.97;101292.71;;;;117393;1190;25503;-61
2022/09/03 12:31:28;;;;;;;;;9.50;5.00;;;28.97;101292.28;;;;117407;1189;24810;-60